createdAt,value
2022-07-25T00:00:51.685Z,7.60
2022-07-25T00:03:19.354Z,7.28
2022-07-25T00:05:47.613Z,7.70
2022-07-25T00:08:15.335Z,6.80
2022-07-25T00:10:43.074Z,7.55
2022-07-25T00:13:10.795Z,7.65
2022-07-25T00:15:38.841Z,6.57
2022-07-25T00:18:06.562Z,6.87
2022-07-25T00:20:34.243Z,7.68
2022-07-25T00:23:01.993Z,7.32
2022-07-25T00:25:29.696Z,6.90
2022-07-25T00:27:57.444Z,7.55
2022-07-25T00:30:25.146Z,7.28
2022-07-25T00:32:53.623Z,7.15
2022-07-25T00:35:21.294Z,6.50
2022-07-25T00:37:49.072Z,6.93
2022-07-25T00:40:16.785Z,7.10
2022-07-25T00:42:44.488Z,7.10
2022-07-25T00:45:12.420Z,7.00
2022-07-25T00:47:40.260Z,7.57
2022-07-25T00:50:08.504Z,7.75
2022-07-25T00:52:36.547Z,7.22
2022-07-25T00:55:04.731Z,7.65
2022-07-25T00:57:32.475Z,7.90
2022-07-25T01:00:00.281Z,7.80
2022-07-25T01:02:28.088Z,7.90
2022-07-25T01:04:56.126Z,7.65
2022-07-25T01:07:24.472Z,7.78
2022-07-25T01:09:52.428Z,7.12
2022-07-25T01:12:20.801Z,7.78
2022-07-25T01:14:48.732Z,7.43
2022-07-25T01:17:16.443Z,8.32
2022-07-25T01:19:44.228Z,7.65
2022-07-25T01:22:11.948Z,8.00
2022-07-25T01:24:40.443Z,8.63
2022-07-25T01:27:08.220Z,8.35
2022-07-25T01:29:44.818Z,8.18
2022-07-25T01:32:13.589Z,8.18
2022-07-25T01:34:41.560Z,8.65
2022-07-25T01:37:09.223Z,8.18
2022-07-25T01:39:36.885Z,8.10
2022-07-25T01:42:04.751Z,8.15
2022-07-25T01:44:32.478Z,7.87
2022-07-25T01:47:00.136Z,8.07
2022-07-25T01:49:27.904Z,7.80
2022-07-25T01:51:55.600Z,7.53
2022-07-25T01:54:23.361Z,7.87
2022-07-25T01:56:52.266Z,7.95
2022-07-25T01:59:19.988Z,7.82
2022-07-25T02:01:47.804Z,7.87
2022-07-25T02:04:15.593Z,7.65
2022-07-25T02:06:43.330Z,8.00
2022-07-25T02:09:11.286Z,7.60
2022-07-25T02:11:39.090Z,8.02
2022-07-25T02:14:07.409Z,7.62
2022-07-25T02:16:35.440Z,7.80
2022-07-25T02:19:03.398Z,8.27
2022-07-25T02:21:31.310Z,7.87
2022-07-25T02:23:59.133Z,7.55
2022-07-25T02:26:26.902Z,7.95
2022-07-25T02:28:54.588Z,7.90
2022-07-25T02:31:22.367Z,8.20
2022-07-25T02:33:50.179Z,8.38
2022-07-25T02:36:18.161Z,8.63
2022-07-25T02:38:46.006Z,8.45
2022-07-25T02:41:13.723Z,7.62
2022-07-25T02:43:41.463Z,8.90
2022-07-25T02:46:09.178Z,8.52
2022-07-25T02:48:36.965Z,7.85
2022-07-25T02:51:04.863Z,7.85
2022-07-25T02:53:56.213Z,8.20
2022-07-25T02:56:21.173Z,8.85
2022-07-25T02:58:49.203Z,8.30
2022-07-25T03:01:16.992Z,8.30
2022-07-25T03:03:44.799Z,8.57
2022-07-25T03:06:12.527Z,8.90
2022-07-25T03:08:40.280Z,9.15
2022-07-25T03:11:08.038Z,9.45
2022-07-25T03:13:35.847Z,9.55
2022-07-25T03:16:03.622Z,9.20
2022-07-25T03:18:31.388Z,8.90
2022-07-25T03:20:59.078Z,8.50
2022-07-25T03:23:28.454Z,9.07
2022-07-25T03:25:56.945Z,8.70
2022-07-25T03:28:25.848Z,9.02
2022-07-25T03:30:54.326Z,8.70
2022-07-25T03:33:22.068Z,9.55
2022-07-25T03:35:49.852Z,9.60
2022-07-25T03:38:17.526Z,9.05
2022-07-25T03:40:45.555Z,8.95
2022-07-25T03:43:13.214Z,9.30
2022-07-25T03:45:41.001Z,8.73
2022-07-25T03:48:08.940Z,8.93
2022-07-25T03:50:36.695Z,9.07
2022-07-25T03:53:04.781Z,8.70
2022-07-25T03:55:32.485Z,8.65
2022-07-25T03:58:00.221Z,9.10
2022-07-25T04:00:28.103Z,9.75
2022-07-25T04:02:55.790Z,8.77
2022-07-25T04:05:23.466Z,9.82
2022-07-25T04:07:51.176Z,8.98
2022-07-25T04:10:18.848Z,8.70
2022-07-25T04:12:46.718Z,9.48
2022-07-25T04:15:14.498Z,9.63
2022-07-25T04:17:42.173Z,10.20
2022-07-25T04:20:11.049Z,8.70
2022-07-25T04:22:42.170Z,10.73
2022-07-25T04:25:12.488Z,9.70
2022-07-25T04:27:40.348Z,9.82
2022-07-25T04:30:08.557Z,9.80
2022-07-25T04:32:36.218Z,9.75
2022-07-25T04:35:03.903Z,10.00
2022-07-25T04:37:31.619Z,11.18
2022-07-25T04:39:59.470Z,11.05
2022-07-25T04:42:27.253Z,10.15
2022-07-25T04:44:55.329Z,10.15
2022-07-25T04:47:23.041Z,9.55
2022-07-25T04:49:50.740Z,10.50
2022-07-25T04:52:18.413Z,10.57
2022-07-25T04:54:46.133Z,10.43
2022-07-25T04:57:13.895Z,10.32
2022-07-25T04:59:41.642Z,10.00
2022-07-25T05:02:09.348Z,10.75
2022-07-25T05:04:37.054Z,10.88
2022-07-25T05:07:12.646Z,11.20
2022-07-25T05:09:41.035Z,10.20
2022-07-25T05:12:09.059Z,10.45
2022-07-25T05:14:36.870Z,10.75
2022-07-25T05:17:04.501Z,10.25
2022-07-25T05:19:32.217Z,10.00
2022-07-25T05:21:59.966Z,10.45
2022-07-25T05:24:28.086Z,10.75
2022-07-25T05:26:55.744Z,11.27
2022-07-25T05:29:23.408Z,11.77
2022-07-25T05:31:51.159Z,10.65
2022-07-25T05:34:18.871Z,10.40
2022-07-25T05:36:47.572Z,11.12
2022-07-25T05:39:15.440Z,10.82
2022-07-25T05:41:43.269Z,10.43
2022-07-25T05:44:11.026Z,11.30
2022-07-25T05:46:38.906Z,11.07
2022-07-25T05:49:06.702Z,10.70
2022-07-25T05:51:34.426Z,11.12
2022-07-25T05:54:02.114Z,10.98
2022-07-25T05:56:31.122Z,11.30
2022-07-25T05:58:58.795Z,10.93
2022-07-25T06:01:26.554Z,11.12
2022-07-25T06:03:54.348Z,11.60
2022-07-25T06:06:22.067Z,10.73
2022-07-25T06:08:49.753Z,11.05
2022-07-25T06:11:17.461Z,11.70
2022-07-25T06:13:45.383Z,10.27
2022-07-25T06:16:13.215Z,11.77
2022-07-25T06:18:40.959Z,10.43
2022-07-25T06:21:08.673Z,10.32
2022-07-25T06:23:36.338Z,10.25
2022-07-25T06:26:04.065Z,10.55
2022-07-25T06:28:31.776Z,11.30
2022-07-25T06:30:59.574Z,10.93
2022-07-25T06:33:27.289Z,10.20
2022-07-25T06:35:55.077Z,10.40
2022-07-25T06:38:22.750Z,10.73
2022-07-25T06:40:50.446Z,10.65
2022-07-25T06:43:18.232Z,10.35
2022-07-25T06:45:48.557Z,11.77
2022-07-25T06:48:17.290Z,11.20
2022-07-25T06:50:45.333Z,11.40
2022-07-25T06:53:13.498Z,11.15
2022-07-25T06:55:41.239Z,11.40
2022-07-25T06:58:09.113Z,10.40
2022-07-25T07:00:36.852Z,10.20
2022-07-25T07:03:05.016Z,10.73
2022-07-25T07:05:35.364Z,9.98
2022-07-25T07:08:03.895Z,9.45
2022-07-25T07:10:32.020Z,9.90
2022-07-25T07:13:08.120Z,10.43
2022-07-25T07:15:36.112Z,9.82
2022-07-25T07:18:03.971Z,11.05
2022-07-25T07:20:31.800Z,10.60
2022-07-25T07:22:59.468Z,10.38
2022-07-25T07:25:28.530Z,10.52
2022-07-25T07:27:56.522Z,10.15
2022-07-25T07:30:27.847Z,9.77
2022-07-25T07:33:01.505Z,10.57
2022-07-25T07:35:29.387Z,10.18
2022-07-25T07:38:02.582Z,10.63
2022-07-25T07:40:30.323Z,8.93
2022-07-25T07:42:59.586Z,9.52
2022-07-25T07:45:27.376Z,10.20
2022-07-25T07:47:56.171Z,10.43
2022-07-25T07:50:28.544Z,9.13
2022-07-25T07:52:57.649Z,9.85
2022-07-25T07:55:44.093Z,10.38
2022-07-25T07:58:17.404Z,10.68
2022-07-25T08:00:50.529Z,10.38
2022-07-25T08:03:22.826Z,10.68
2022-07-25T08:05:52.779Z,11.27
2022-07-25T08:08:21.522Z,10.88
2022-07-25T08:10:51.885Z,11.50
2022-07-25T08:13:31.409Z,11.40
2022-07-25T08:16:01.206Z,11.98
2022-07-25T08:18:30.940Z,11.80
2022-07-25T08:20:58.705Z,10.65
2022-07-25T08:23:28.772Z,11.73
2022-07-25T08:25:56.711Z,11.27
2022-07-25T08:28:24.506Z,11.57
2022-07-25T08:30:52.615Z,11.10
2022-07-25T08:33:20.491Z,11.68
2022-07-25T08:35:50.058Z,11.35
2022-07-25T08:38:17.855Z,11.00
2022-07-25T08:40:45.690Z,11.55
2022-07-25T08:43:15.221Z,11.77
2022-07-25T08:45:48.966Z,12.37
2022-07-25T08:48:22.407Z,12.18
2022-07-25T08:50:51.103Z,11.60
2022-07-25T08:53:36.095Z,12.32
2022-07-25T08:56:13.397Z,11.95
2022-07-25T08:58:44.601Z,12.25
2022-07-25T09:01:15.823Z,11.75
2022-07-25T09:03:44.617Z,13.13
2022-07-25T09:06:21.059Z,11.52
2022-07-25T09:09:00.630Z,12.48
2022-07-25T09:11:36.331Z,13.38
2022-07-25T09:14:13.124Z,12.77
2022-07-25T09:16:45.179Z,11.60
2022-07-25T09:19:15.996Z,14.20
2022-07-25T09:21:45.528Z,12.45
2022-07-25T09:24:18.797Z,13.25
2022-07-25T09:26:54.860Z,12.52
2022-07-25T09:29:24.433Z,12.05
2022-07-25T09:31:53.347Z,11.65
2022-07-25T09:34:35.590Z,10.35
2022-07-25T09:37:11.014Z,11.38
2022-07-25T09:39:46.427Z,12.52
2022-07-25T09:42:18.751Z,11.10
2022-07-25T09:45:02.173Z,13.38
2022-07-25T09:47:31.762Z,12.10
2022-07-25T09:49:59.664Z,11.35
2022-07-25T09:52:27.557Z,11.68
2022-07-25T09:54:57.985Z,11.77
2022-07-25T09:57:26.919Z,9.98
2022-07-25T09:59:55.216Z,11.85
2022-07-25T10:02:47.794Z,10.75
2022-07-25T10:05:48.031Z,10.43
2022-07-25T10:08:16.231Z,10.70
2022-07-25T10:10:44.097Z,10.20
2022-07-25T10:13:16.602Z,10.65
2022-07-25T10:15:46.400Z,10.32
2022-07-25T10:18:16.393Z,10.52
2022-07-25T10:20:46.665Z,9.93
2022-07-25T10:23:22.858Z,9.68
2022-07-25T10:26:17.304Z,10.07
2022-07-25T10:28:50.293Z,9.40
2022-07-25T10:31:25.577Z,8.35
2022-07-25T10:33:56.639Z,9.10
2022-07-25T10:36:25.820Z,8.32
2022-07-25T10:38:57.235Z,8.90
2022-07-25T10:41:27.438Z,8.52
2022-07-25T10:44:00.860Z,10.05
2022-07-25T10:46:31.836Z,8.35
2022-07-25T10:49:02.133Z,8.48
2022-07-25T10:51:36.001Z,9.55
2022-07-25T10:54:17.937Z,9.50
2022-07-25T10:57:16.229Z,8.77
2022-07-25T10:59:43.995Z,8.40
2022-07-25T11:02:19.261Z,8.65
2022-07-25T11:04:59.656Z,8.70
2022-07-25T11:07:29.802Z,8.27
2022-07-25T11:10:00.175Z,7.37
2022-07-25T11:12:28.940Z,8.15
2022-07-25T11:15:04.898Z,7.43
2022-07-25T11:17:33.593Z,7.47
2022-07-25T11:20:09.445Z,7.18
2022-07-25T11:22:37.291Z,7.20
2022-07-25T11:25:13.937Z,6.62
2022-07-25T11:27:41.777Z,7.35
2022-07-25T11:30:17.219Z,6.60
2022-07-25T11:32:54.434Z,6.28
2022-07-25T11:35:24.988Z,7.07
2022-07-25T11:37:54.699Z,6.60
2022-07-25T11:40:23.776Z,7.25
2022-07-25T11:42:54.438Z,6.43
2022-07-25T11:45:26.150Z,6.87
2022-07-25T11:48:14.928Z,6.47
2022-07-25T11:50:45.557Z,6.47
2022-07-25T11:53:17.481Z,6.03
2022-07-25T11:55:45.411Z,6.30
2022-07-25T11:58:14.911Z,7.00
2022-07-25T12:00:48.590Z,6.72
2022-07-25T12:03:20.656Z,6.65
2022-07-25T12:05:50.336Z,5.80
2022-07-25T12:08:20.338Z,6.78
2022-07-25T12:10:50.247Z,6.40
2022-07-25T12:13:29.916Z,6.78
2022-07-25T12:16:01.481Z,6.45
2022-07-25T12:18:29.845Z,6.07
2022-07-25T12:20:57.538Z,5.80
2022-07-25T12:23:25.335Z,5.60
2022-07-25T12:25:53.046Z,6.00
2022-07-25T12:28:20.825Z,5.47
2022-07-25T12:30:53.022Z,6.07
2022-07-25T12:33:23.893Z,5.60
2022-07-25T12:35:51.816Z,5.40
2022-07-25T12:38:19.473Z,6.18
2022-07-25T12:40:47.290Z,5.85
2022-07-25T12:43:15.007Z,5.65
2022-07-25T12:45:43.660Z,5.68
2022-07-25T12:48:13.862Z,5.25
2022-07-25T12:50:42.459Z,5.60
2022-07-25T12:53:10.529Z,5.93
2022-07-25T12:55:38.278Z,5.68
2022-07-25T12:58:06.179Z,6.12
2022-07-25T13:00:34.047Z,6.37
2022-07-25T13:03:01.913Z,6.07
2022-07-25T13:05:30.671Z,5.82
2022-07-25T13:07:58.446Z,5.90
2022-07-25T13:10:26.185Z,6.45
2022-07-25T13:12:53.923Z,6.22
2022-07-25T13:15:24.368Z,6.53
2022-07-25T13:17:52.150Z,6.37
2022-07-25T13:20:19.945Z,6.82
2022-07-25T13:22:47.762Z,6.93
2022-07-25T13:25:15.534Z,6.22
2022-07-25T13:27:43.209Z,6.70
2022-07-25T13:30:11.266Z,6.60
2022-07-25T13:32:39.226Z,6.57
2022-07-25T13:35:07.450Z,5.85
2022-07-25T13:37:35.365Z,5.72
2022-07-25T13:40:03.174Z,6.60
2022-07-25T13:42:31.009Z,6.45
2022-07-25T13:44:58.758Z,6.37
2022-07-25T13:47:30.316Z,6.03
2022-07-25T13:49:58.494Z,6.37
2022-07-25T13:52:26.352Z,6.40
2022-07-25T13:54:54.069Z,5.68
2022-07-25T13:57:21.864Z,6.90
2022-07-25T13:59:49.853Z,6.28
2022-07-25T14:02:17.695Z,7.30
2022-07-25T14:04:45.437Z,6.50
2022-07-25T14:07:13.157Z,6.20
2022-07-25T14:09:40.986Z,6.32
2022-07-25T14:12:08.855Z,6.20
2022-07-25T14:14:36.569Z,7.20
2022-07-25T14:17:04.367Z,6.07
2022-07-25T14:19:32.101Z,6.22
2022-07-25T14:21:59.884Z,6.30
2022-07-25T14:24:27.582Z,6.15
2022-07-25T14:26:56.227Z,6.65
2022-07-25T14:29:28.609Z,6.82
2022-07-25T14:31:58.614Z,6.62
2022-07-25T14:34:26.385Z,6.53
2022-07-25T14:36:54.127Z,6.43
2022-07-25T14:39:21.860Z,6.53
2022-07-25T14:41:49.819Z,6.45
2022-07-25T14:44:17.590Z,5.93
2022-07-25T14:46:45.581Z,6.20
2022-07-25T14:49:15.169Z,6.72
2022-07-25T14:51:44.040Z,6.35
2022-07-25T14:54:11.848Z,6.35
2022-07-25T14:56:40.810Z,6.43
2022-07-25T14:59:09.489Z,6.22
2022-07-25T15:01:39.177Z,6.80
2022-07-25T15:04:07.433Z,6.15
2022-07-25T15:06:35.654Z,6.55
2022-07-25T15:09:03.497Z,7.00
2022-07-25T15:11:31.512Z,6.35
2022-07-25T15:13:59.533Z,6.40
2022-07-25T15:16:27.314Z,6.40
2022-07-25T15:21:43.235Z,7.05
2022-07-25T15:24:10.939Z,7.20
2022-07-25T15:26:38.991Z,6.75
2022-07-25T15:29:11.424Z,6.80
2022-07-25T15:31:39.449Z,6.45
2022-07-25T15:34:07.204Z,7.12
2022-07-25T15:36:35.001Z,6.85
2022-07-25T15:39:02.948Z,6.43
2022-07-25T15:41:31.587Z,7.28
2022-07-25T15:44:00.848Z,7.05
2022-07-25T15:46:30.058Z,5.82
2022-07-25T15:48:58.975Z,7.10
2022-07-25T15:51:26.780Z,6.55
2022-07-25T15:53:54.555Z,7.20
2022-07-25T15:56:22.399Z,6.25
2022-07-25T15:58:50.502Z,6.97
2022-07-25T16:01:18.469Z,6.62
2022-07-25T16:03:46.575Z,6.87
2022-07-25T16:06:18.739Z,6.50
2022-07-25T16:08:46.687Z,6.28
2022-07-25T16:11:14.444Z,6.25
2022-07-25T16:13:43.022Z,6.80
2022-07-25T16:16:11.259Z,6.62
2022-07-25T16:18:39.005Z,7.10
2022-07-25T16:21:07.445Z,6.70
2022-07-25T16:23:39.670Z,6.95
2022-07-25T16:26:09.879Z,7.15
2022-07-25T16:28:37.777Z,6.70
2022-07-25T16:31:07.664Z,6.93
2022-07-25T16:33:35.564Z,6.68
2022-07-25T16:36:03.451Z,6.97
2022-07-25T16:38:31.314Z,6.97
2022-07-25T16:40:59.112Z,6.85
2022-07-25T16:43:26.970Z,6.68
2022-07-25T16:45:54.730Z,6.82
2022-07-25T16:48:22.810Z,6.78
2022-07-25T16:50:50.493Z,7.05
2022-07-25T16:53:18.201Z,6.80
2022-07-25T16:55:45.905Z,6.25
2022-07-25T16:58:13.722Z,6.18
2022-07-25T17:00:42.068Z,6.12
2022-07-25T17:03:09.730Z,5.90
2022-07-25T17:05:37.482Z,6.95
2022-07-25T17:08:05.547Z,6.35
2022-07-25T17:10:33.264Z,7.18
2022-07-25T17:13:00.940Z,6.75
2022-07-25T17:15:28.672Z,6.22
2022-07-25T17:17:56.359Z,6.00
2022-07-25T17:20:24.155Z,6.25
2022-07-25T17:22:51.914Z,6.00
2022-07-25T17:25:19.637Z,6.37
2022-07-25T17:27:47.416Z,6.12
2022-07-25T17:30:15.198Z,5.90
2022-07-25T17:32:43.086Z,5.85
2022-07-25T17:35:11.005Z,5.37
2022-07-25T17:37:38.891Z,5.97
2022-07-25T17:40:07.187Z,5.93
2022-07-25T17:42:35.132Z,5.68
2022-07-25T17:45:06.857Z,6.07
2022-07-25T17:47:36.177Z,5.80
2022-07-25T17:50:05.391Z,5.37
2022-07-25T17:52:33.357Z,5.15
2022-07-25T17:55:01.124Z,5.60
2022-07-25T17:57:29.351Z,5.22
2022-07-25T17:59:58.148Z,5.60
2022-07-25T18:02:25.958Z,5.45
2022-07-25T18:04:53.791Z,5.70
2022-07-25T18:07:21.783Z,5.87
2022-07-25T18:09:49.719Z,5.22
2022-07-25T18:12:17.458Z,5.18
2022-07-25T18:14:45.221Z,5.00
2022-07-25T18:17:12.983Z,5.30
2022-07-25T18:19:40.775Z,5.30
2022-07-25T18:22:08.534Z,5.00
2022-07-25T18:24:36.446Z,5.72
2022-07-25T18:27:05.671Z,5.93
2022-07-25T18:29:34.027Z,5.45
2022-07-25T18:32:02.816Z,5.35
2022-07-25T18:34:32.182Z,6.05
2022-07-25T18:37:00.318Z,5.30
2022-07-25T18:39:28.051Z,5.95
2022-07-25T18:41:55.780Z,6.07
2022-07-25T18:44:23.595Z,5.60
2022-07-25T18:46:51.685Z,5.28
2022-07-25T18:49:19.620Z,6.35
2022-07-25T18:51:47.449Z,5.70
2022-07-25T18:54:15.531Z,5.62
2022-07-25T18:56:44.270Z,5.57
2022-07-25T18:59:12.019Z,6.32
2022-07-25T19:01:39.775Z,5.93
2022-07-25T19:04:07.964Z,5.57
2022-07-25T19:06:35.871Z,5.95
2022-07-25T19:09:05.016Z,5.93
2022-07-25T19:11:35.110Z,5.68
2022-07-25T19:14:05.644Z,5.78
2022-07-25T19:16:33.891Z,5.32
2022-07-25T19:19:02.107Z,5.82
2022-07-25T19:21:29.846Z,5.90
2022-07-25T19:23:57.562Z,5.55
2022-07-25T19:26:25.706Z,5.43
2022-07-25T19:28:53.423Z,5.43
2022-07-25T19:31:21.557Z,5.87
2022-07-25T19:33:50.366Z,5.90
2022-07-25T19:36:18.189Z,6.03
2022-07-25T19:38:45.899Z,5.68
2022-07-25T19:41:13.927Z,5.80
2022-07-25T19:43:41.722Z,5.07
2022-07-25T19:46:09.525Z,5.18
2022-07-25T19:48:37.428Z,4.60
2022-07-25T19:51:05.424Z,5.10
2022-07-25T19:53:37.187Z,4.93
2022-07-25T19:56:05.486Z,5.10
2022-07-25T19:58:38.416Z,5.78
2022-07-25T20:01:06.814Z,4.87
2022-07-25T20:03:35.527Z,5.25
2022-07-25T20:06:07.852Z,5.30
2022-07-25T20:08:36.607Z,4.82
2022-07-25T20:11:04.588Z,4.95
2022-07-25T20:13:32.443Z,5.37
2022-07-25T20:16:00.373Z,5.28
2022-07-25T20:18:28.221Z,5.62
2022-07-25T20:20:55.976Z,4.82
2022-07-25T20:23:24.555Z,4.80
2022-07-25T20:25:52.379Z,4.90
2022-07-25T20:28:20.215Z,4.97
2022-07-25T20:30:47.980Z,5.28
2022-07-25T20:33:15.731Z,5.32
2022-07-25T20:35:43.501Z,4.85
2022-07-25T20:38:11.192Z,5.65
2022-07-25T20:40:48.060Z,5.07
2022-07-25T20:43:17.164Z,5.12
2022-07-25T20:45:45.743Z,5.00
2022-07-25T20:48:15.378Z,5.12
2022-07-25T20:50:44.468Z,5.03
2022-07-25T20:53:12.374Z,5.35
2022-07-25T20:55:40.106Z,4.80
2022-07-25T20:58:07.890Z,5.22
2022-07-25T21:00:35.720Z,5.82
2022-07-25T21:03:03.842Z,5.20
2022-07-25T21:05:31.727Z,6.12
2022-07-25T21:07:59.463Z,5.57
2022-07-25T21:10:27.464Z,5.93
2022-07-25T21:12:56.985Z,6.62
2022-07-25T21:15:25.579Z,6.28
2022-07-25T21:17:53.342Z,6.15
2022-07-25T21:20:21.190Z,5.75
2022-07-25T21:22:49.226Z,6.03
2022-07-25T21:25:16.906Z,5.25
2022-07-25T21:27:44.844Z,5.97
2022-07-25T21:30:13.306Z,5.40
2022-07-25T21:32:41.803Z,5.18
2022-07-25T21:35:10.015Z,5.60
2022-07-25T21:37:37.807Z,5.03
2022-07-25T21:40:06.100Z,5.12
2022-07-25T21:42:33.852Z,5.28
2022-07-25T21:45:01.596Z,4.97
2022-07-25T21:47:29.500Z,4.87
2022-07-25T21:50:21.362Z,5.05
2022-07-25T21:52:52.995Z,5.15
2022-07-25T21:55:21.213Z,5.00
2022-07-25T21:57:49.330Z,5.07
2022-07-25T22:00:17.570Z,5.50
2022-07-25T22:02:47.334Z,5.00
2022-07-25T22:05:16.541Z,5.65
2022-07-25T22:07:47.269Z,4.68
2022-07-25T22:10:16.507Z,5.45
2022-07-25T22:12:44.671Z,5.05
2022-07-25T22:15:14.071Z,5.45
2022-07-25T22:17:48.232Z,5.47
2022-07-25T22:20:18.225Z,5.93
2022-07-25T22:22:47.286Z,5.78
2022-07-25T22:25:15.024Z,5.55
2022-07-25T22:27:42.870Z,4.45
2022-07-25T22:30:17.993Z,5.30
2022-07-25T22:32:47.192Z,5.35
2022-07-25T22:35:15.239Z,4.60
2022-07-25T22:37:42.943Z,4.70
2022-07-25T22:40:11.047Z,4.68
2022-07-25T22:42:38.769Z,4.62
2022-07-25T22:45:07.066Z,4.55
2022-07-25T22:47:34.757Z,4.57
2022-07-25T22:50:02.418Z,4.80
2022-07-25T22:52:30.132Z,4.80
2022-07-25T22:54:57.991Z,4.55
2022-07-25T22:57:25.701Z,4.32
2022-07-25T22:59:53.426Z,4.47
2022-07-25T23:02:21.100Z,3.67
2022-07-25T23:04:48.761Z,3.70
2022-07-25T23:07:16.422Z,3.55
2022-07-25T23:09:44.290Z,3.70
2022-07-25T23:12:12.384Z,4.03
2022-07-25T23:14:40.127Z,4.20
2022-07-25T23:17:21.143Z,3.55
2022-07-25T23:19:50.525Z,3.47
2022-07-25T23:22:19.271Z,3.17
2022-07-25T23:24:47.359Z,3.37
2022-07-25T23:27:16.005Z,3.42
2022-07-25T23:29:44.261Z,3.22
2022-07-25T23:32:12.036Z,3.67
2022-07-25T23:34:40.017Z,3.87
2022-07-25T23:37:07.852Z,3.85
2022-07-25T23:39:35.617Z,3.92
2022-07-25T23:42:04.630Z,3.70
2022-07-25T23:44:32.391Z,4.50
2022-07-25T23:47:01.578Z,4.00
2022-07-25T23:49:30.023Z,4.18
2022-07-25T23:51:58.308Z,3.50
2022-07-25T23:54:26.077Z,4.15
2022-07-25T23:56:54.549Z,4.07
2022-07-25T23:59:22.365Z,4.30
